Time;durP1;ratioP1;P1;durP2;ratioP2;P2;SDS_P1;SDS_P2;PMS_P1;PMS_P2;Temp;Humidity;BMP_temperature;BMP_pressure;BME280_temperature;BME280_humidity;BME280_pressure;Samples;Min_cycle;Max_cycle;Signal;HPM_P1;HPM_P2
2023/11/23 00:02:07;;;;;;;13.47;9.37;;;;;;;;;;4988870;28;20219;-82
2023/11/23 00:05:11;;;;;;;13.20;9.17;;;;;;;;;;4977511;28;20179;-82
2023/11/23 00:08:15;;;;;;;15.13;9.70;;;;;;;;;;4977045;28;20178;-82
2023/11/23 00:11:20;;;;;;;13.63;9.87;;;;;;;;;;4977702;28;20223;-82
2023/11/23 00:14:24;;;;;;;17.57;10.67;;;;;;;;;;4988775;28;20558;-82
2023/11/23 00:17:30;;;;;;;15.50;10.57;;;;;;;;;;4988524;28;20183;-82
2023/11/23 00:20:34;;;;;;;14.97;10.40;;;;;;;;;;4966716;28;20614;-82
2023/11/23 00:23:38;;;;;;;16.60;10.03;;;;;;;;;;4990044;28;20183;-82
2023/11/23 00:26:43;;;;;;;14.20;9.70;;;;;;;;;;4978191;28;20179;-83
2023/11/23 00:29:48;;;;;;;17.27;10.53;;;;;;;;;;4989079;28;20182;-82
2023/11/23 00:32:53;;;;;;;14.57;9.97;;;;;;;;;;4989530;28;20542;-82
2023/11/23 00:35:58;;;;;;;17.47;10.43;;;;;;;;;;4989037;28;20175;-82
2023/11/23 00:39:03;;;;;;;16.17;10.53;;;;;;;;;;4966361;28;20606;-82
2023/11/23 00:42:08;;;;;;;14.80;10.00;;;;;;;;;;4988534;28;20215;-81
2023/11/23 00:45:14;;;;;;;16.13;10.50;;;;;;;;;;4988686;28;20539;-82
2023/11/23 00:48:18;;;;;;;15.37;10.33;;;;;;;;;;4966393;28;20543;-82
2023/11/23 00:51:23;;;;;;;17.37;10.63;;;;;;;;;;4987522;28;20617;-82
2023/11/23 00:54:28;;;;;;;16.13;10.30;;;;;;;;;;4965646;28;20543;-81
2023/11/23 00:57:34;;;;;;;20.00;11.50;;;;;;;;;;4988089;28;20535;-81
2023/11/23 01:00:38;;;;;;;16.87;10.67;;;;;;;;;;4976980;28;20635;-82
2023/11/23 01:03:44;;;;;;;18.03;11.50;;;;;;;;;;4976778;28;20634;-82
2023/11/23 01:06:49;;;;;;;18.37;12.00;;;;;;;;;;4976719;28;20546;-82
2023/11/23 01:09:53;;;;;;;20.73;11.67;;;;;;;;;;4976507;28;20598;-82
2023/11/23 01:12:58;;;;;;;18.53;11.60;;;;;;;;;;4965529;28;20554;-82
2023/11/23 01:16:02;;;;;;;18.37;10.83;;;;;;;;;;4976994;28;20547;-82
2023/11/23 01:19:06;;;;;;;20.60;12.10;;;;;;;;;;4975502;28;20598;-82
2023/11/23 01:22:11;;;;;;;15.73;11.30;;;;;;;;;;4987631;28;20633;-81
2023/11/23 01:25:15;;;;;;;19.03;11.27;;;;;;;;;;4987401;28;20550;-82
2023/11/23 01:28:19;;;;;;;17.67;11.67;;;;;;;;;;4987743;28;20551;-82
2023/11/23 01:31:23;;;;;;;18.07;11.80;;;;;;;;;;4987761;28;20622;-82
2023/11/23 01:34:27;;;;;;;17.33;11.60;;;;;;;;;;4987274;28;20543;-82
2023/11/23 01:37:35;;;;;;;16.50;10.63;;;;;;;;;;4987095;28;20555;-82
2023/11/23 01:40:39;;;;;;;18.43;11.93;;;;;;;;;;4986216;28;20658;-82
2023/11/23 01:43:45;;;;;;;18.17;11.03;;;;;;;;;;4985687;28;20558;-82
2023/11/23 01:46:50;;;;;;;18.10;11.30;;;;;;;;;;4975634;28;20546;-82
2023/11/23 01:49:57;;;;;;;17.37;11.67;;;;;;;;;;4986263;28;20539;-82
2023/11/23 01:53:03;;;;;;;17.10;11.10;;;;;;;;;;4975437;28;20559;-82
2023/11/23 01:56:10;;;;;;;18.00;11.50;;;;;;;;;;4975437;28;20551;-82
2023/11/23 01:59:16;;;;;;;19.23;11.90;;;;;;;;;;4975720;28;20610;-82
2023/11/23 02:02:20;;;;;;;19.87;12.27;;;;;;;;;;4986930;28;20618;-82
2023/11/23 02:05:24;;;;;;;19.87;12.40;;;;;;;;;;4975004;28;21078;-82
2023/11/23 02:08:28;;;;;;;19.50;11.90;;;;;;;;;;4975656;28;20559;-82
2023/11/23 02:11:32;;;;;;;18.47;11.90;;;;;;;;;;4976493;28;20634;-82
2023/11/23 02:14:38;;;;;;;21.27;12.30;;;;;;;;;;4975277;28;20571;-82
2023/11/23 02:17:42;;;;;;;15.77;10.73;;;;;;;;;;4975951;28;20551;-82
2023/11/23 02:20:46;;;;;;;19.10;12.50;;;;;;;;;;4986295;28;20661;-82
2023/11/23 02:23:50;;;;;;;17.33;10.90;;;;;;;;;;4975459;28;20558;-82
2023/11/23 02:26:57;;;;;;;17.87;11.50;;;;;;;;;;4986170;28;20543;-82
2023/11/23 02:30:03;;;;;;;16.70;10.97;;;;;;;;;;4987273;28;20535;-82
2023/11/23 02:33:08;;;;;;;18.40;10.90;;;;;;;;;;4979004;28;20542;-82
2023/11/23 02:36:12;;;;;;;18.67;11.80;;;;;;;;;;4990647;28;20562;-82
2023/11/23 02:39:18;;;;;;;19.97;12.27;;;;;;;;;;4978284;28;20594;-82
2023/11/23 02:42:22;;;;;;;19.43;12.27;;;;;;;;;;4977895;28;20617;-82
2023/11/23 02:45:26;;;;;;;20.27;12.47;;;;;;;;;;4990108;28;20542;-81
2023/11/23 02:48:31;;;;;;;19.93;12.37;;;;;;;;;;4989310;28;20539;-82
2023/11/23 02:51:35;;;;;;;17.67;12.17;;;;;;;;;;4989984;28;20622;-82
2023/11/23 02:54:39;;;;;;;19.20;12.37;;;;;;;;;;4978730;28;20562;-82
2023/11/23 02:57:43;;;;;;;20.30;12.30;;;;;;;;;;4989898;28;20546;-82
2023/11/23 03:00:54;;;;;;;19.60;13.30;;;;;;;;;;4978598;28;20649;-82
2023/11/23 03:03:58;;;;;;;19.27;12.73;;;;;;;;;;4978699;28;20542;-82
2023/11/23 03:07:02;;;;;;;17.37;11.63;;;;;;;;;;4989187;28;20542;-82
2023/11/23 03:10:08;;;;;;;19.60;12.30;;;;;;;;;;4988973;28;20538;-82
2023/11/23 03:13:14;;;;;;;17.20;12.10;;;;;;;;;;4978369;28;20559;-82
2023/11/23 03:16:18;;;;;;;19.50;12.97;;;;;;;;;;4989694;28;20538;-82
2023/11/23 03:19:22;;;;;;;19.17;12.63;;;;;;;;;;4989543;28;20602;-82
2023/11/23 03:22:26;;;;;;;17.90;12.53;;;;;;;;;;4988818;28;20614;-82
2023/11/23 03:25:31;;;;;;;17.47;11.77;;;;;;;;;;4988611;28;20543;-82
2023/11/23 03:28:35;;;;;;;20.07;12.70;;;;;;;;;;4989274;28;20558;-82
2023/11/23 03:31:39;;;;;;;19.10;12.47;;;;;;;;;;4988238;28;20618;-82
2023/11/23 03:34:44;;;;;;;20.50;12.33;;;;;;;;;;4988799;28;20546;-82
2023/11/23 03:37:49;;;;;;;19.20;12.60;;;;;;;;;;4988760;28;20567;-82
2023/11/23 03:40:57;;;;;;;21.10;12.60;;;;;;;;;;4999506;28;20654;-82
2023/11/23 03:44:01;;;;;;;19.47;12.17;;;;;;;;;;4978027;28;20567;-82
2023/11/23 03:47:06;;;;;;;19.40;12.43;;;;;;;;;;4988296;28;20542;-82
2023/11/23 03:50:10;;;;;;;18.23;12.80;;;;;;;;;;4976984;28;20538;-82
2023/11/23 03:53:14;;;;;;;19.10;12.90;;;;;;;;;;4988100;28;20535;-82
2023/11/23 03:56:18;;;;;;;18.67;12.70;;;;;;;;;;5000361;28;20538;-83
2023/11/23 03:59:22;;;;;;;18.33;11.47;;;;;;;;;;4966333;28;20563;-82
2023/11/23 04:02:27;;;;;;;19.47;12.77;;;;;;;;;;4988688;28;20626;-82
2023/11/23 04:05:31;;;;;;;17.60;12.07;;;;;;;;;;4987658;28;20547;-82
2023/11/23 04:08:35;;;;;;;17.23;12.40;;;;;;;;;;4987976;28;20559;-82
2023/11/23 04:11:40;;;;;;;18.37;11.07;;;;;;;;;;5033818;23;20672;-86
2023/11/23 04:14:44;;;;;;;17.70;11.97;;;;;;;;;;4996088;28;21093;-86
2023/11/23 04:17:48;;;;;;;17.80;11.93;;;;;;;;;;4995444;28;20534;-86
2023/11/23 04:20:54;;;;;;;17.20;11.73;;;;;;;;;;4973092;28;20598;-86
2023/11/23 04:23:57;;;;;;;16.40;11.70;;;;;;;;;;4995158;28;20542;-86
2023/11/23 04:27:02;;;;;;;16.67;12.07;;;;;;;;;;4983955;28;20538;-86
2023/11/23 04:30:06;;;;;;;19.17;12.53;;;;;;;;;;4995646;28;20541;-86
2023/11/23 04:33:11;;;;;;;18.30;12.50;;;;;;;;;;4972875;28;20542;-86
2023/11/23 04:36:15;;;;;;;19.13;12.30;;;;;;;;;;4995944;28;20541;-86
2023/11/23 04:39:19;;;;;;;17.73;12.17;;;;;;;;;;4995308;28;21121;-86
2023/11/23 04:42:23;;;;;;;20.00;12.87;;;;;;;;;;4994750;28;20625;-87
2023/11/23 04:45:27;;;;;;;20.33;12.63;;;;;;;;;;4995035;28;20549;-86
2023/11/23 04:48:32;;;;;;;20.63;12.57;;;;;;;;;;4983878;28;21087;-86
2023/11/23 04:51:37;;;;;;;19.13;12.77;;;;;;;;;;4994891;28;20618;-86
2023/11/23 04:54:41;;;;;;;18.13;12.60;;;;;;;;;;4994446;28;20571;-87
2023/11/23 04:57:45;;;;;;;18.97;11.67;;;;;;;;;;4995022;28;20880;-86
2023/11/23 05:00:49;;;;;;;20.20;12.30;;;;;;;;;;4994367;28;20597;-86
2023/11/23 05:03:53;;;;;;;20.20;11.57;;;;;;;;;;4995245;28;20545;-86
2023/11/23 05:06:57;;;;;;;19.00;11.97;;;;;;;;;;4983544;28;20541;-86
2023/11/23 05:10:01;;;;;;;21.93;13.00;;;;;;;;;;4995106;28;20534;-86
2023/11/23 05:13:05;;;;;;;18.23;12.17;;;;;;;;;;4983237;28;20597;-87
2023/11/23 05:16:09;;;;;;;25.23;11.97;;;;;;;;;;4994381;28;20541;-86
2023/11/23 05:19:13;;;;;;;18.33;11.97;;;;;;;;;;4994667;28;20537;-86
2023/11/23 05:22:18;;;;;;;17.30;11.30;;;;;;;;;;4994837;28;21216;-86
2023/11/23 05:25:22;;;;;;;18.67;12.83;;;;;;;;;;4994768;28;20546;-86
2023/11/23 05:28:27;;;;;;;18.13;11.57;;;;;;;;;;4982924;28;20553;-86
2023/11/23 05:31:31;;;;;;;20.27;12.70;;;;;;;;;;4995565;28;20632;-86
2023/11/23 05:34:35;;;;;;;21.73;13.10;;;;;;;;;;4983392;28;20538;-86
2023/11/23 05:37:39;;;;;;;18.97;12.00;;;;;;;;;;4982782;28;20554;-86
2023/11/23 05:40:43;;;;;;;17.80;12.33;;;;;;;;;;4994651;28;21144;-86
2023/11/23 05:43:50;;;;;;;18.70;12.10;;;;;;;;;;4993975;28;21134;-86
2023/11/23 05:46:54;;;;;;;19.87;12.67;;;;;;;;;;4994166;28;20896;-86
2023/11/23 05:50:01;;;;;;;20.70;12.73;;;;;;;;;;4993755;28;20546;-86
2023/11/23 05:53:06;;;;;;;17.27;11.60;;;;;;;;;;4993663;28;20920;-86
2023/11/23 05:56:10;;;;;;;19.40;11.93;;;;;;;;;;4994663;28;20546;-86
2023/11/23 05:59:14;;;;;;;19.33;12.13;;;;;;;;;;4993508;28;20558;-86
2023/11/23 06:02:19;;;;;;;19.07;13.00;;;;;;;;;;4993496;28;20621;-86
2023/11/23 06:05:23;;;;;;;22.83;14.07;;;;;;;;;;4988235;28;20541;-86
2023/11/23 06:08:27;;;;;;;21.23;13.37;;;;;;;;;;5001204;28;20895;-87
2023/11/23 06:11:32;;;;;;;21.70;13.10;;;;;;;;;;5000001;28;20640;-86
2023/11/23 06:14:39;;;;;;;20.20;12.53;;;;;;;;;;4999854;28;20557;-86
2023/11/23 06:17:46;;;;;;;20.60;11.70;;;;;;;;;;5000203;28;20908;-86
2023/11/23 06:24:56;;;;;;;18.93;12.57;;;;;;;;;;4960199;29;20632;-87
2023/11/23 06:28:00;;;;;;;17.87;11.70;;;;;;;;;;4960912;29;20547;-86
2023/11/23 06:57:54;;;;;;;18.13;11.33;;;;;;;;;;4963190;28;20675;-85
2023/11/23 07:01:02;;;;;;;19.30;12.90;;;;;;;;;;4963355;28;20650;-85
2023/11/23 07:04:07;;;;;;;20.20;12.97;;;;;;;;;;4952354;29;20548;-86
2023/11/23 07:07:11;;;;;;;17.93;11.67;;;;;;;;;;4950944;29;20566;-86
2023/11/23 07:10:17;;;;;;;17.70;10.73;;;;;;;;;;4974059;28;20555;-85
2023/11/23 07:13:21;;;;;;;16.53;10.57;;;;;;;;;;4962602;29;20555;-85
2023/11/23 07:16:25;;;;;;;16.83;11.50;;;;;;;;;;4962017;28;20543;-85
2023/11/23 07:19:29;;;;;;;18.60;12.13;;;;;;;;;;4959898;29;20547;-85
2023/11/23 07:22:49;;;;;;;20.03;12.57;;;;;;;;;;5065126;23;20685;-85
2023/11/23 07:25:58;;;;;;;19.60;12.10;;;;;;;;;;4987460;28;20616;-84
2023/11/23 07:29:05;;;;;;;18.10;12.20;;;;;;;;;;5000233;28;20526;-84
2023/11/23 07:38:36;;;;;;;20.23;13.17;;;;;;;;;;4961051;29;20670;-85
2023/11/23 07:42:20;;;;;;;18.00;11.00;;;;;;;;;;4959781;28;20658;-84
2023/11/23 07:45:25;;;;;;;24.17;14.93;;;;;;;;;;4959882;29;20546;-85
2023/11/23 07:48:53;;;;;;;;;;;;;;;;;;;;;
2023/11/23 09:52:19;;;;;;;7.50;6.17;;;;;;;;;;4956735;28;20235;-84
2023/11/23 09:55:25;;;;;;;10.80;7.70;;;;;;;;;;4946043;29;20287;-84
2023/11/23 09:58:30;;;;;;;8.63;5.97;;;;;;;;;;4956972;29;20179;-83
2023/11/23 10:01:43;;;;;;;8.43;6.70;;;;;;;;;;4958057;28;20231;-83
2023/11/23 10:04:48;;;;;;;7.67;5.97;;;;;;;;;;4956704;29;20184;-85
2023/11/23 10:07:54;;;;;;;8.47;5.50;;;;;;;;;;4946132;29;20621;-83
2023/11/23 10:10:58;;;;;;;8.07;6.13;;;;;;;;;;4957842;28;20219;-86
2023/11/23 10:14:04;;;;;;;6.43;5.00;;;;;;;;;;4945713;29;20183;-86
2023/11/23 10:17:08;;;;;;;8.00;5.93;;;;;;;;;;4967625;28;20187;-85
2023/11/23 10:20:15;;;;;;;6.77;5.30;;;;;;;;;;4956764;29;20187;-86
2023/11/23 10:23:21;;;;;;;6.37;5.07;;;;;;;;;;4949778;29;20211;-86
2023/11/23 10:26:26;;;;;;;8.63;5.57;;;;;;;;;;4958500;29;20196;-86
2023/11/23 10:29:32;;;;;;;7.10;5.13;;;;;;;;;;4959853;29;20188;-86
2023/11/23 10:32:36;;;;;;;7.03;5.20;;;;;;;;;;4957605;28;20211;-86
2023/11/23 10:35:43;;;;;;;6.03;4.73;;;;;;;;;;4945608;29;20187;-86
2023/11/23 10:38:49;;;;;;;7.77;4.90;;;;;;;;;;4946485;29;20183;-86
2023/11/23 10:41:54;;;;;;;6.70;5.20;;;;;;;;;;4957357;28;20227;-86
2023/11/23 10:44:58;;;;;;;6.87;5.43;;;;;;;;;;4957349;29;20526;-86
2023/11/23 10:48:03;;;;;;;6.07;4.93;;;;;;;;;;4956774;29;20629;-85
2023/11/23 10:51:07;;;;;;;5.80;4.30;;;;;;;;;;4959001;28;20628;-86
2023/11/23 10:54:11;;;;;;;9.73;5.00;;;;;;;;;;4949270;29;20626;-86
2023/11/23 10:57:17;;;;;;;6.10;4.87;;;;;;;;;;4949707;29;20179;-85
2023/11/23 11:00:25;;;;;;;6.73;5.20;;;;;;;;;;4960777;29;20180;-86
2023/11/23 11:03:29;;;;;;;8.37;5.83;;;;;;;;;;4960357;29;20207;-86
2023/11/23 11:06:38;;;;;;;7.43;5.77;;;;;;;;;;4961835;29;20187;-85
2023/11/23 11:09:44;;;;;;;10.67;6.20;;;;;;;;;;4960632;29;20184;-86
2023/11/23 11:12:48;;;;;;;6.47;5.13;;;;;;;;;;4959514;28;20211;-86
2023/11/23 11:15:56;;;;;;;5.83;4.50;;;;;;;;;;4959802;29;20180;-86
2023/11/23 11:19:06;;;;;;;7.80;5.43;;;;;;;;;;4960253;29;20195;-85
2023/11/23 11:22:14;;;;;;;6.33;4.60;;;;;;;;;;4959800;28;20223;-86
2023/11/23 11:25:18;;;;;;;8.70;4.60;;;;;;;;;;4960993;29;20192;-86
2023/11/23 11:28:22;;;;;;;8.30;4.63;;;;;;;;;;4959774;29;20179;-86
2023/11/23 11:31:34;;;;;;;7.37;4.47;;;;;;;;;;4959182;28;20215;-86
2023/11/23 11:34:38;;;;;;;6.63;4.30;;;;;;;;;;4959873;29;20180;-86
2023/11/23 11:37:43;;;;;;;8.30;4.47;;;;;;;;;;4959604;29;20187;-86
2023/11/23 11:40:49;;;;;;;5.10;3.77;;;;;;;;;;4948199;28;20188;-86
2023/11/23 11:43:58;;;;;;;7.83;4.60;;;;;;;;;;4960148;29;20180;-86
2023/11/23 11:47:06;;;;;;;4.77;3.90;;;;;;;;;;4960569;29;20537;-86
2023/11/23 11:50:11;;;;;;;8.63;4.30;;;;;;;;;;4960441;29;20188;-86
2023/11/23 11:53:15;;;;;;;4.73;3.93;;;;;;;;;;4948519;29;20180;-86
2023/11/23 11:56:19;;;;;;;5.47;4.20;;;;;;;;;;4947748;29;20188;-85
2023/11/23 11:59:25;;;;;;;8.70;4.70;;;;;;;;;;4958663;29;20188;-86
2023/11/23 12:02:31;;;;;;;13.37;8.03;;;;;;;;;;4959964;28;20230;-86
2023/11/23 12:05:39;;;;;;;7.00;5.43;;;;;;;;;;4947775;29;20191;-85
2023/11/23 12:08:45;;;;;;;6.00;4.67;;;;;;;;;;4960275;29;20184;-86
2023/11/23 12:11:51;;;;;;;10.00;5.30;;;;;;;;;;4947558;29;20223;-86
2023/11/23 12:14:56;;;;;;;5.47;4.40;;;;;;;;;;4958918;29;20183;-84
2023/11/23 12:18:02;;;;;;;8.33;5.17;;;;;;;;;;4948795;29;20187;-84
2023/11/23 12:21:17;;;;;;;6.43;4.60;;;;;;;;;;4959309;28;20219;-85
2023/11/23 12:24:21;;;;;;;7.57;5.00;;;;;;;;;;4959965;29;20176;-84
2023/11/23 12:27:26;;;;;;;4.80;4.03;;;;;;;;;;4949127;29;20637;-84
2023/11/23 12:30:31;;;;;;;5.13;4.10;;;;;;;;;;4960334;29;20183;-85
2023/11/23 12:33:35;;;;;;;4.80;3.93;;;;;;;;;;4960504;29;20179;-84
2023/11/23 12:36:39;;;;;;;5.37;4.43;;;;;;;;;;4959405;29;20643;-84
2023/11/23 12:39:49;;;;;;;5.60;4.60;;;;;;;;;;4961014;29;20196;-85
2023/11/23 12:42:53;;;;;;;6.37;4.50;;;;;;;;;;4958163;28;20219;-83
2023/11/23 12:45:58;;;;;;;6.73;4.73;;;;;;;;;;4947772;29;20184;-84
2023/11/23 12:49:05;;;;;;;6.77;4.93;;;;;;;;;;4958977;29;20179;-84
2023/11/23 12:52:09;;;;;;;7.33;5.17;;;;;;;;;;4969900;28;20596;-84
2023/11/23 12:55:17;;;;;;;9.47;5.90;;;;;;;;;;4948401;29;20617;-84
2023/11/23 12:58:22;;;;;;;7.57;5.37;;;;;;;;;;4958083;29;20511;-84
2023/11/23 13:01:26;;;;;;;8.30;5.43;;;;;;;;;;4946675;28;20215;-82
2023/11/23 13:04:34;;;;;;;9.77;7.47;;;;;;;;;;4958773;29;20643;-84
2023/11/23 13:07:41;;;;;;;6.30;5.00;;;;;;;;;;4958714;29;20557;-84
2023/11/23 13:10:46;;;;;;;8.27;6.23;;;;;;;;;;4959314;28;20183;-83
2023/11/23 13:13:49;;;;;;;7.17;5.17;;;;;;;;;;4946898;28;20179;-84
2023/11/23 13:16:54;;;;;;;7.17;5.00;;;;;;;;;;4947360;29;20183;-84
2023/11/23 13:19:59;;;;;;;7.67;4.97;;;;;;;;;;4946524;29;20195;-85
2023/11/23 13:23:03;;;;;;;8.33;5.33;;;;;;;;;;4947197;29;20215;-85
2023/11/23 13:26:07;;;;;;;7.17;5.20;;;;;;;;;;4957781;29;20193;-84
2023/11/23 13:29:11;;;;;;;7.63;4.70;;;;;;;;;;4957431;29;20187;-84
2023/11/23 13:32:15;;;;;;;6.30;4.83;;;;;;;;;;4946858;29;20218;-85
2023/11/23 13:35:22;;;;;;;7.73;5.33;;;;;;;;;;4957679;29;20282;-84
2023/11/23 13:38:26;;;;;;;11.43;5.73;;;;;;;;;;4949710;29;20529;-84
2023/11/23 13:41:30;;;;;;;9.13;6.30;;;;;;;;;;4961597;28;20215;-84
2023/11/23 13:44:34;;;;;;;8.13;5.13;;;;;;;;;;4959054;29;20188;-85
2023/11/23 13:47:39;;;;;;;6.37;4.87;;;;;;;;;;4959208;29;20189;-85
2023/11/23 13:50:44;;;;;;;7.67;5.80;;;;;;;;;;4959492;28;20215;-84
2023/11/23 13:53:48;;;;;;;9.23;5.30;;;;;;;;;;4959111;29;20530;-84
2023/11/23 13:56:53;;;;;;;6.57;4.10;;;;;;;;;;4947091;29;20187;-85
2023/11/23 13:59:59;;;;;;;6.43;3.70;;;;;;;;;;4958063;29;20184;-84
2023/11/23 14:03:04;;;;;;;6.53;4.10;;;;;;;;;;4959098;29;20215;-84
2023/11/23 14:06:08;;;;;;;4.43;3.10;;;;;;;;;;4958178;29;20188;-85
2023/11/23 14:09:18;;;;;;;7.10;5.90;;;;;;;;;;4958351;29;20183;-84
2023/11/23 14:12:23;;;;;;;6.10;4.20;;;;;;;;;;4957780;28;20215;-84
2023/11/23 14:15:27;;;;;;;5.83;5.20;;;;;;;;;;4958519;29;20187;-84
2023/11/23 14:18:31;;;;;;;5.50;3.17;;;;;;;;;;4958127;29;20183;-85
2023/11/23 14:21:36;;;;;;;3.37;2.80;;;;;;;;;;4957928;28;20220;-84
2023/11/23 14:24:40;;;;;;;3.40;2.87;;;;;;;;;;4958095;28;20211;-84
2023/11/23 14:27:46;;;;;;;3.83;2.77;;;;;;;;;;4961954;29;20183;-85
2023/11/23 14:30:52;;;;;;;6.47;3.00;;;;;;;;;;4961902;28;20187;-84
2023/11/23 14:33:56;;;;;;;3.97;2.90;;;;;;;;;;4961776;29;20180;-84
2023/11/23 14:37:00;;;;;;;3.60;2.80;;;;;;;;;;4961715;29;20187;-84
2023/11/23 14:40:13;;;;;;;3.33;2.40;;;;;;;;;;4961970;29;20187;-85
2023/11/23 14:43:18;;;;;;;3.90;2.40;;;;;;;;;;4960296;29;20211;-84
2023/11/23 14:46:22;;;;;;;3.27;2.20;;;;;;;;;;4961472;29;20187;-84
2023/11/23 14:49:30;;;;;;;3.40;2.40;;;;;;;;;;4961219;29;20187;-84
2023/11/23 14:52:35;;;;;;;2.83;2.13;;;;;;;;;;4960410;28;20216;-84
2023/11/23 14:55:39;;;;;;;4.87;3.13;;;;;;;;;;4949601;29;20176;-85
2023/11/23 14:58:44;;;;;;;5.97;2.97;;;;;;;;;;4962212;29;20188;-85
2023/11/23 15:01:49;;;;;;;3.53;2.80;;;;;;;;;;4960410;28;20223;-83
2023/11/23 15:04:54;;;;;;;5.63;3.70;;;;;;;;;;4961286;29;20219;-84
2023/11/23 15:07:59;;;;;;;4.50;3.60;;;;;;;;;;4961555;29;20187;-84
2023/11/23 15:11:03;;;;;;;5.97;3.43;;;;;;;;;;4960414;28;20219;-83
2023/11/23 15:14:07;;;;;;;5.30;4.13;;;;;;;;;;4960257;29;20184;-83
2023/11/23 15:17:12;;;;;;;7.43;4.40;;;;;;;;;;4962200;29;20187;-83
2023/11/23 15:20:16;;;;;;;6.63;4.20;;;;;;;;;;4961317;29;20184;-83
2023/11/23 15:23:20;;;;;;;6.20;4.97;;;;;;;;;;4960054;29;20207;-84
2023/11/23 15:26:26;;;;;;;8.67;5.17;;;;;;;;;;4960403;29;20179;-85
2023/11/23 15:29:30;;;;;;;6.57;4.23;;;;;;;;;;4960747;29;20187;-84
2023/11/23 15:32:37;;;;;;;5.90;3.87;;;;;;;;;;4959134;28;20215;-85
2023/11/23 15:35:41;;;;;;;7.93;4.40;;;;;;;;;;4957676;29;20629;-87
2023/11/23 15:38:45;;;;;;;7.03;4.83;;;;;;;;;;4957527;29;20188;-88
2023/11/23 15:41:51;;;;;;;6.97;5.30;;;;;;;;;;4957481;28;20223;-87
2023/11/23 15:44:54;;;;;;;8.50;5.30;;;;;;;;;;4957159;29;20216;-87
2023/11/23 15:47:59;;;;;;;6.33;4.80;;;;;;;;;;4957149;29;20545;-87
2023/11/23 15:51:03;;;;;;;8.33;6.00;;;;;;;;;;4957536;28;20235;-87
2023/11/23 15:54:08;;;;;;;11.67;6.77;;;;;;;;;;4956951;29;20179;-87
2023/11/23 15:57:11;;;;;;;21.20;12.57;;;;;;;;;;4957304;29;20179;-87
2023/11/23 16:00:16;;;;;;;29.07;16.63;;;;;;;;;;4956954;29;20179;-87
2023/11/23 16:03:20;;;;;;;11.47;8.60;;;;;;;;;;4956389;29;20546;-87
2023/11/23 16:06:24;;;;;;;10.53;5.40;;;;;;;;;;4957336;29;20621;-87
2023/11/23 16:09:28;;;;;;;8.63;5.30;;;;;;;;;;4957165;29;20184;-87
2023/11/23 16:12:32;;;;;;;6.80;5.03;;;;;;;;;;4958257;28;20570;-84
2023/11/23 16:15:36;;;;;;;7.53;5.23;;;;;;;;;;4959689;29;20187;-85
2023/11/23 16:18:41;;;;;;;6.63;5.33;;;;;;;;;;4959498;29;20183;-84
2023/11/23 16:21:46;;;;;;;8.93;6.80;;;;;;;;;;4960208;28;20223;-84
2023/11/23 16:24:53;;;;;;;7.87;4.37;;;;;;;;;;4970118;28;20215;-84
2023/11/23 16:27:58;;;;;;;4.80;3.43;;;;;;;;;;4948177;29;20188;-84
2023/11/23 16:31:04;;;;;;;7.20;3.57;;;;;;;;;;4947342;28;20219;-85
2023/11/23 16:34:08;;;;;;;4.93;3.47;;;;;;;;;;4958894;29;20184;-85
2023/11/23 16:37:12;;;;;;;5.70;4.03;;;;;;;;;;4958409;29;20183;-84
2023/11/23 16:40:17;;;;;;;4.73;3.63;;;;;;;;;;4959920;29;20657;-84
2023/11/23 16:43:21;;;;;;;6.20;4.00;;;;;;;;;;4947012;29;20227;-84
2023/11/23 16:46:25;;;;;;;4.40;3.50;;;;;;;;;;4959996;29;20188;-85
2023/11/23 16:49:29;;;;;;;5.80;4.43;;;;;;;;;;4957518;28;20185;-85
2023/11/23 16:52:33;;;;;;;29.63;16.40;;;;;;;;;;4958841;28;20227;-85
2023/11/23 16:55:37;;;;;;;17.70;10.20;;;;;;;;;;4947450;29;20180;-85
2023/11/23 16:58:42;;;;;;;6.97;3.63;;;;;;;;;;4946573;29;20183;-85
2023/11/23 17:01:46;;;;;;;4.63;3.30;;;;;;;;;;4969125;28;20218;-85
2023/11/23 17:04:50;;;;;;;3.70;2.80;;;;;;;;;;4946788;29;20676;-85
2023/11/23 17:07:54;;;;;;;4.83;3.67;;;;;;;;;;4969488;28;20641;-84
2023/11/23 17:10:58;;;;;;;4.00;3.13;;;;;;;;;;4957511;28;20223;-85
2023/11/23 17:14:03;;;;;;;4.30;3.33;;;;;;;;;;4947406;29;20176;-85
2023/11/23 17:17:07;;;;;;;5.07;3.70;;;;;;;;;;4958004;29;20187;-85
2023/11/23 17:20:13;;;;;;;6.80;4.20;;;;;;;;;;4957673;29;20187;-84
2023/11/23 17:23:18;;;;;;;6.70;5.00;;;;;;;;;;4947760;29;20187;-85
2023/11/23 17:26:24;;;;;;;4.77;4.10;;;;;;;;;;4957847;29;20552;-85
2023/11/23 17:29:28;;;;;;;7.70;4.77;;;;;;;;;;4956702;29;20184;-85
2023/11/23 17:32:32;;;;;;;8.10;4.57;;;;;;;;;;4945554;29;20219;-85
2023/11/23 17:35:37;;;;;;;9.30;5.17;;;;;;;;;;4957034;29;20184;-85
2023/11/23 17:38:40;;;;;;;6.37;4.87;;;;;;;;;;4956351;29;20183;-85
2023/11/23 17:41:45;;;;;;;8.30;5.67;;;;;;;;;;4945469;29;20226;-85
2023/11/23 17:44:49;;;;;;;20.17;13.00;;;;;;;;;;4956040;29;20211;-85
2023/11/23 17:47:54;;;;;;;9.60;6.80;;;;;;;;;;4956351;29;20526;-85
2023/11/23 17:50:59;;;;;;;8.17;5.07;;;;;;;;;;4955433;28;20227;-85
2023/11/23 17:54:05;;;;;;;7.67;5.50;;;;;;;;;;4955952;29;20577;-86
2023/11/23 17:57:10;;;;;;;7.70;5.77;;;;;;;;;;4944488;29;20183;-85
2023/11/23 18:00:15;;;;;;;7.30;5.17;;;;;;;;;;4944494;29;20184;-85
2023/11/23 18:03:19;;;;;;;6.27;5.03;;;;;;;;;;4957660;29;20183;-85
2023/11/23 18:06:23;;;;;;;8.20;5.10;;;;;;;;;;4956537;29;20179;-86
2023/11/23 18:09:30;;;;;;;8.37;5.93;;;;;;;;;;4956662;29;20187;-85
2023/11/23 18:12:33;;;;;;;10.70;6.93;;;;;;;;;;4956780;28;20272;-85
2023/11/23 18:15:38;;;;;;;9.20;5.93;;;;;;;;;;4957511;29;20179;-86
2023/11/23 18:18:42;;;;;;;7.47;5.03;;;;;;;;;;4934432;29;20188;-85
2023/11/23 18:21:47;;;;;;;7.13;5.30;;;;;;;;;;4967180;28;20833;-85
2023/11/23 18:24:51;;;;;;;9.03;5.57;;;;;;;;;;4957261;29;20215;-85
2023/11/23 18:27:56;;;;;;;20.50;12.90;;;;;;;;;;4958964;29;20187;-85
2023/11/23 18:31:00;;;;;;;7.47;5.90;;;;;;;;;;4957283;28;20688;-86
2023/11/23 18:34:07;;;;;;;6.50;5.10;;;;;;;;;;4946544;29;20184;-85
2023/11/23 18:37:12;;;;;;;7.53;4.73;;;;;;;;;;4946324;29;20573;-85
2023/11/23 18:40:20;;;;;;;6.87;4.60;;;;;;;;;;4956308;29;20525;-86
2023/11/23 18:43:25;;;;;;;5.30;4.10;;;;;;;;;;4958011;29;20184;-85
2023/11/23 18:46:29;;;;;;;5.63;4.10;;;;;;;;;;4946396;29;20172;-85
2023/11/23 18:49:34;;;;;;;6.40;5.30;;;;;;;;;;4947487;29;20187;-86
2023/11/23 18:52:38;;;;;;;6.00;4.57;;;;;;;;;;4947387;29;20227;-86
2023/11/23 18:55:42;;;;;;;5.13;4.03;;;;;;;;;;4961484;29;20626;-85
2023/11/23 18:58:46;;;;;;;3.90;3.40;;;;;;;;;;4948235;29;20179;-85
2023/11/23 19:01:53;;;;;;;4.47;3.30;;;;;;;;;;4958828;28;20223;-86
2023/11/23 19:04:59;;;;;;;5.70;4.73;;;;;;;;;;4960078;29;20215;-85
2023/11/23 19:08:04;;;;;;;7.57;3.20;;;;;;;;;;4946286;29;20187;-85
2023/11/23 19:11:13;;;;;;;3.07;2.30;;;;;;;;;;4945650;28;20215;-84
2023/11/23 19:14:17;;;;;;;4.93;3.43;;;;;;;;;;4960837;29;20533;-85
2023/11/23 19:17:25;;;;;;;1.77;1.63;;;;;;;;;;4960195;29;20188;-85
2023/11/23 19:20:33;;;;;;;3.00;1.80;;;;;;;;;;4960052;29;20180;-84
2023/11/23 19:23:56;;;;;;;;;;;;;;;;;;;;;
